createdAt,value
2018-06-10T00:01:07.389Z,63.34
2018-06-10T00:02:43.915Z,63.40
2018-06-10T00:04:20.331Z,63.41
2018-06-10T00:05:56.440Z,64.38
2018-06-10T00:07:32.599Z,64.09
2018-06-10T00:09:08.992Z,63.92
2018-06-10T00:10:45.744Z,64.43
2018-06-10T00:12:21.970Z,64.40
2018-06-10T00:13:58.148Z,64.46
2018-06-10T00:15:34.619Z,65.16
2018-06-10T00:17:11.831Z,65.61
2018-06-10T00:18:48.082Z,65.61
2018-06-10T00:20:24.319Z,65.40
2018-06-10T00:22:00.331Z,65.54
2018-06-10T00:23:36.412Z,65.60
2018-06-10T00:25:12.681Z,65.08
2018-06-10T00:26:48.819Z,65.29
2018-06-10T00:28:30.047Z,64.93
2018-06-10T00:30:07.320Z,64.60
2018-06-10T00:31:43.727Z,64.60
2018-06-10T00:33:19.889Z,64.37
2018-06-10T00:34:56.013Z,64.78
2018-06-10T00:36:32.084Z,64.21
2018-06-10T00:38:08.140Z,64.10
2018-06-10T00:39:44.195Z,63.73
2018-06-10T00:41:20.727Z,63.82
2018-06-10T00:42:57.060Z,63.56
2018-06-10T00:44:33.168Z,63.46
2018-06-10T00:46:09.599Z,64.10
2018-06-10T00:47:45.405Z,64.59
2018-06-10T00:49:21.322Z,64.14
2018-06-10T00:50:58.492Z,64.72
2018-06-10T00:52:34.595Z,64.73
2018-06-10T00:54:11.163Z,64.75
2018-06-10T00:55:47.584Z,65.04
2018-06-10T00:57:28.145Z,65.03
2018-06-10T00:59:04.149Z,65.63
2018-06-10T01:00:40.305Z,65.92
2018-06-10T01:02:16.410Z,65.34
2018-06-10T01:03:52.496Z,65.83
2018-06-10T01:05:28.554Z,65.54
2018-06-10T01:07:04.624Z,66.00
2018-06-10T01:08:41.325Z,65.57
2018-06-10T01:10:17.342Z,65.78
2018-06-10T01:11:53.150Z,65.88
2018-06-10T01:13:29.267Z,65.92
2018-06-10T01:15:05.741Z,65.85
2018-06-10T01:16:41.813Z,65.92
2018-06-10T01:18:17.940Z,65.97
2018-06-10T01:19:53.986Z,66.05
2018-06-10T01:21:31.002Z,66.41
2018-06-10T01:23:07.138Z,66.24
2018-06-10T01:24:43.473Z,67.00
2018-06-10T01:26:24.727Z,67.31
2018-06-10T01:28:00.850Z,67.24
2018-06-10T01:29:36.953Z,67.84
2018-06-10T01:31:13.131Z,67.64
2018-06-10T01:32:49.378Z,67.50
2018-06-10T01:34:25.490Z,67.59
2018-06-10T01:36:01.549Z,67.60
2018-06-10T01:37:37.754Z,67.67
2018-06-10T01:39:17.653Z,67.43
2018-06-10T01:40:55.321Z,68.06
2018-06-10T01:42:33.305Z,68.60
2018-06-10T01:44:10.239Z,68.56
2018-06-10T01:45:47.165Z,68.45
2018-06-10T01:47:23.434Z,68.55
2018-06-10T01:49:00.488Z,68.85
2018-06-10T01:50:36.797Z,68.50
2018-06-10T01:52:13.446Z,69.01
2018-06-10T01:53:49.787Z,68.70
2018-06-10T01:55:25.915Z,69.12
2018-06-10T01:57:02.236Z,68.89
2018-06-10T01:58:38.610Z,68.58
2018-06-10T02:00:15.146Z,69.23
2018-06-10T02:01:51.279Z,69.44
2018-06-10T02:03:27.378Z,69.24
2018-06-10T02:05:03.454Z,69.43
2018-06-10T02:06:39.786Z,69.61
2018-06-10T02:08:16.994Z,70.21
2018-06-10T02:09:53.919Z,70.27
2018-06-10T02:11:30.037Z,70.45
2018-06-10T02:13:07.057Z,70.86
2018-06-10T02:14:43.189Z,70.84
2018-06-10T02:16:19.537Z,70.61
2018-06-10T02:17:56.099Z,70.94
2018-06-10T02:19:33.280Z,70.88
2018-06-10T02:21:09.983Z,71.37
2018-06-10T02:22:46.226Z,70.88
2018-06-10T02:24:22.307Z,70.62
2018-06-10T02:25:58.409Z,71.08
2018-06-10T02:27:36.219Z,70.80
2018-06-10T02:29:12.333Z,70.85
2018-06-10T02:30:48.393Z,71.45
2018-06-10T02:32:25.702Z,71.05
2018-06-10T02:34:03.696Z,70.90
2018-06-10T02:35:39.714Z,71.05
2018-06-10T02:37:15.777Z,71.63
2018-06-10T02:38:51.796Z,71.42
2018-06-10T02:40:27.823Z,71.19
2018-06-10T02:42:03.902Z,71.58
2018-06-10T02:43:39.932Z,71.54
2018-06-10T02:45:15.937Z,71.58
2018-06-10T02:46:51.930Z,72.19
2018-06-10T02:48:27.982Z,71.53
2018-06-10T02:50:04.040Z,72.16
2018-06-10T02:51:40.377Z,71.46
2018-06-10T02:53:17.042Z,71.43
2018-06-10T02:54:53.605Z,71.25
2018-06-10T02:56:29.628Z,71.31
2018-06-10T02:58:05.724Z,71.74
2018-06-10T02:59:41.752Z,72.09
2018-06-10T03:01:17.980Z,71.62
2018-06-10T03:02:54.102Z,71.84
2018-06-10T03:04:31.391Z,71.72
2018-06-10T03:06:08.494Z,71.34
2018-06-10T03:07:44.567Z,70.96
2018-06-10T03:09:20.685Z,70.91
2018-06-10T03:10:56.783Z,70.76
2018-06-10T03:12:32.826Z,71.07
2018-06-10T03:14:08.883Z,70.92
2018-06-10T03:15:45.014Z,70.87
2018-06-10T03:17:21.412Z,70.31
2018-06-10T03:18:58.161Z,70.63
2018-06-10T03:20:40.953Z,70.78
2018-06-10T03:22:17.926Z,70.65
2018-06-10T03:23:54.056Z,70.66
2018-06-10T03:25:30.155Z,71.12
2018-06-10T03:27:06.643Z,70.81
2018-06-10T03:28:43.515Z,70.45
2018-06-10T03:30:21.434Z,70.70
2018-06-10T03:31:57.609Z,70.45
2018-06-10T03:33:35.844Z,70.50
2018-06-10T03:35:12.409Z,70.48
2018-06-10T03:36:49.379Z,71.28
2018-06-10T03:38:32.715Z,70.98
2018-06-10T03:40:08.802Z,70.90
2018-06-10T03:41:44.738Z,70.85
2018-06-10T03:43:20.974Z,70.60
2018-06-10T03:44:57.701Z,70.19
2018-06-10T03:46:34.028Z,70.70
2018-06-10T03:48:10.076Z,70.60
2018-06-10T03:49:46.209Z,70.47
2018-06-10T03:51:22.285Z,70.68
2018-06-10T03:52:58.387Z,70.69
2018-06-10T03:54:34.413Z,70.09
2018-06-10T03:56:10.514Z,69.84
2018-06-10T03:57:46.565Z,70.03
2018-06-10T03:59:22.590Z,70.37
2018-06-10T04:00:58.680Z,70.10
2018-06-10T04:02:34.924Z,70.66
2018-06-10T04:04:10.960Z,70.19
2018-06-10T04:05:47.022Z,69.68
2018-06-10T04:07:23.497Z,70.12
2018-06-10T04:08:59.532Z,70.04
2018-06-10T04:10:36.378Z,69.97
2018-06-10T04:12:13.894Z,69.99
2018-06-10T04:13:50.195Z,69.70
2018-06-10T04:15:26.276Z,69.96
2018-06-10T04:17:02.310Z,69.65
2018-06-10T04:18:38.405Z,69.43
2018-06-10T04:20:14.453Z,69.17
2018-06-10T04:21:50.506Z,68.77
2018-06-10T04:23:26.714Z,68.65
2018-06-10T04:25:02.772Z,68.55
2018-06-10T04:26:39.021Z,68.16
2018-06-10T04:28:15.038Z,68.63
2018-06-10T04:29:51.144Z,69.32
2018-06-10T04:31:27.268Z,69.34
2018-06-10T04:33:03.765Z,68.86
2018-06-10T04:34:39.865Z,69.18
2018-06-10T04:36:15.961Z,69.35
2018-06-10T04:37:52.066Z,69.02
2018-06-10T04:39:28.453Z,68.64
2018-06-10T04:41:04.643Z,68.97
2018-06-10T04:42:40.678Z,68.42
2018-06-10T04:44:16.472Z,68.05
2018-06-10T04:45:52.677Z,68.09
2018-06-10T04:47:29.618Z,68.90
2018-06-10T04:49:06.125Z,68.77
2018-06-10T04:50:42.207Z,68.62
2018-06-10T04:52:18.262Z,68.88
2018-06-10T04:53:54.388Z,69.06
2018-06-10T04:55:31.318Z,68.52
2018-06-10T04:57:07.390Z,68.37
2018-06-10T04:58:43.389Z,67.62
2018-06-10T05:00:20.631Z,67.98
2018-06-10T05:01:59.621Z,68.26
2018-06-10T05:03:37.983Z,68.07
2018-06-10T05:05:15.006Z,67.33
2018-06-10T05:06:53.034Z,67.47
2018-06-10T05:08:34.172Z,67.15
2018-06-10T05:10:11.377Z,67.20
2018-06-10T05:11:47.422Z,66.97
2018-06-10T05:13:23.799Z,66.56
2018-06-10T05:14:59.890Z,65.77
2018-06-10T05:16:36.391Z,65.38
2018-06-10T05:18:13.222Z,65.54
2018-06-10T05:19:49.153Z,64.69
2018-06-10T05:21:25.798Z,65.31
2018-06-10T05:23:01.952Z,64.42
2018-06-10T05:24:38.451Z,64.52
2018-06-10T05:26:14.532Z,64.32
2018-06-10T05:27:51.037Z,64.07
2018-06-10T05:29:27.195Z,63.84
2018-06-10T05:31:09.458Z,63.41
2018-06-10T05:32:45.629Z,63.01
2018-06-10T05:34:23.031Z,63.08
2018-06-10T05:36:00.242Z,62.87
2018-06-10T05:37:38.122Z,62.97
2018-06-10T05:39:15.143Z,62.27
2018-06-10T05:40:51.194Z,62.17
2018-06-10T05:42:27.247Z,61.70
2018-06-10T05:44:03.378Z,61.71
2018-06-10T05:45:39.498Z,60.67
2018-06-10T05:47:16.672Z,60.89
2018-06-10T05:48:52.724Z,59.97
2018-06-10T05:50:30.115Z,60.11
2018-06-10T05:52:08.028Z,60.01
2018-06-10T05:53:47.560Z,59.31
2018-06-10T05:55:23.743Z,58.78
2018-06-10T05:57:00.122Z,58.45
2018-06-10T05:58:37.745Z,57.60
2018-06-10T06:00:13.953Z,57.26
2018-06-10T06:01:50.695Z,57.12
2018-06-10T06:03:26.772Z,57.24
2018-06-10T06:05:03.110Z,57.67
2018-06-10T06:06:41.446Z,57.49
2018-06-10T06:08:27.134Z,57.39
2018-06-10T06:10:03.743Z,56.22
2018-06-10T06:11:41.585Z,55.71
2018-06-10T06:13:20.776Z,55.84
2018-06-10T06:14:58.397Z,55.15
2018-06-10T06:18:21.498Z,56.25
2018-06-10T06:19:59.780Z,55.73
2018-06-10T06:21:38.145Z,56.10
2018-06-10T06:23:25.699Z,56.11
2018-06-10T06:25:05.456Z,56.27
2018-06-10T06:26:46.106Z,55.96
2018-06-10T06:28:22.718Z,55.68
2018-06-10T06:30:00.061Z,55.19
2018-06-10T06:31:39.657Z,54.98
2018-06-10T06:33:16.609Z,55.30
2018-06-10T06:34:52.677Z,54.77
2018-06-10T06:36:28.765Z,54.55
2018-06-10T06:38:05.298Z,55.34
2018-06-10T06:39:41.832Z,55.23
2018-06-10T06:41:18.716Z,55.89
2018-06-10T06:42:56.110Z,54.98
2018-06-10T06:44:32.262Z,54.95
2018-06-10T06:46:13.490Z,55.38
2018-06-10T06:47:51.341Z,54.63
2018-06-10T06:49:27.410Z,54.36
2018-06-10T06:51:03.533Z,53.87
2018-06-10T06:52:40.521Z,53.61
2018-06-10T06:54:17.861Z,54.32
2018-06-10T06:55:55.131Z,55.43
2018-06-10T06:57:31.846Z,56.57
2018-06-10T06:59:08.844Z,55.02
2018-06-10T07:00:45.612Z,55.13
2018-06-10T07:02:24.446Z,54.60
2018-06-10T07:04:01.042Z,56.11
2018-06-10T07:05:37.727Z,56.16
2018-06-10T07:07:14.868Z,56.10
2018-06-10T07:09:00.737Z,56.04
2018-06-10T07:10:37.581Z,55.63
2018-06-10T07:12:15.401Z,55.56
2018-06-10T07:13:51.508Z,55.05
2018-06-10T07:15:28.146Z,54.11
2018-06-10T07:17:05.693Z,54.18
2018-06-10T07:18:45.875Z,54.85
2018-06-10T07:20:23.551Z,54.05
2018-06-10T07:22:00.218Z,53.92
2018-06-10T07:23:38.876Z,52.89
2018-06-10T07:25:19.023Z,54.27
2018-06-10T07:26:58.319Z,53.89
2018-06-10T07:28:35.105Z,54.42
2018-06-10T07:30:11.150Z,54.59
2018-06-10T07:31:49.984Z,54.68
2018-06-10T07:33:26.322Z,54.03
2018-06-10T07:35:10.655Z,53.51
2018-06-10T07:36:46.735Z,53.91
2018-06-10T07:38:22.519Z,54.37
2018-06-10T07:39:58.398Z,54.67
2018-06-10T07:41:34.906Z,54.38
2018-06-10T07:43:10.940Z,55.17
2018-06-10T07:44:47.312Z,55.09
2018-06-10T07:46:23.499Z,55.13
2018-06-10T07:47:59.954Z,54.70
2018-06-10T07:49:36.084Z,55.43
2018-06-10T07:51:12.097Z,56.06
2018-06-10T07:52:49.586Z,55.52
2018-06-10T07:54:25.474Z,55.40
2018-06-10T07:56:02.905Z,54.88
2018-06-10T07:57:39.226Z,55.85
2018-06-10T07:59:15.348Z,56.62
2018-06-10T08:00:51.857Z,56.61
2018-06-10T08:02:27.989Z,56.66
2018-06-10T08:04:05.416Z,56.40
2018-06-10T08:05:41.482Z,56.71
2018-06-10T08:07:17.720Z,56.42
2018-06-10T08:08:55.367Z,56.92
2018-06-10T08:10:31.858Z,57.24
2018-06-10T08:12:08.117Z,56.71
2018-06-10T08:13:46.316Z,56.29
2018-06-10T08:15:22.626Z,56.59
2018-06-10T08:17:00.013Z,56.40
2018-06-10T08:18:38.017Z,56.96
2018-06-10T08:20:14.654Z,57.43
2018-06-10T08:21:50.780Z,57.22
2018-06-10T08:23:28.073Z,56.71
2018-06-10T08:25:05.277Z,56.68
2018-06-10T08:26:43.668Z,56.62
2018-06-10T08:28:21.067Z,56.68
2018-06-10T08:30:01.851Z,57.00
2018-06-10T08:31:38.816Z,56.81
2018-06-10T08:33:16.386Z,56.52
2018-06-10T08:34:58.117Z,56.30
2018-06-10T08:36:42.927Z,56.23
2018-06-10T08:38:21.038Z,57.06
2018-06-10T08:39:59.630Z,56.43
2018-06-10T08:41:36.246Z,55.95
2018-06-10T08:43:16.605Z,54.83
2018-06-10T08:45:01.246Z,54.09
2018-06-10T08:46:43.992Z,53.69
2018-06-10T08:48:28.057Z,53.33
2018-06-10T08:50:04.331Z,52.28
2018-06-10T08:51:40.664Z,50.33
2018-06-10T08:53:16.711Z,50.42
2018-06-10T08:54:52.813Z,50.26
2018-06-10T08:56:29.024Z,49.39
2018-06-10T08:58:05.188Z,49.15
2018-06-10T08:59:43.177Z,48.74
2018-06-10T09:01:24.061Z,48.94
2018-06-10T09:03:09.670Z,48.61
2018-06-10T09:04:49.515Z,49.31
2018-06-10T09:06:25.899Z,49.38
2018-06-10T09:08:04.394Z,49.19
2018-06-10T09:09:41.695Z,49.97
2018-06-10T09:11:21.335Z,49.57
2018-06-10T09:12:59.561Z,49.67
2018-06-10T09:14:37.056Z,49.51
2018-06-10T09:16:19.898Z,48.87
2018-06-10T09:17:59.022Z,48.57
2018-06-10T09:19:36.658Z,48.15
2018-06-10T09:21:34.292Z,48.45
2018-06-10T09:23:16.054Z,48.94
2018-06-10T09:24:56.664Z,48.76
2018-06-10T09:26:33.410Z,47.34
2018-06-10T09:28:10.884Z,47.33
2018-06-10T09:29:50.499Z,47.25
2018-06-10T09:31:27.455Z,45.75
2018-06-10T09:33:03.502Z,46.52
2018-06-10T09:34:39.567Z,46.62
2018-06-10T09:36:16.809Z,45.84
2018-06-10T09:37:52.874Z,45.10
2018-06-10T09:39:28.917Z,44.35
2018-06-10T09:41:08.538Z,45.52
2018-06-10T09:42:47.089Z,46.62
2018-06-10T09:44:23.230Z,46.22
2018-06-10T09:45:59.895Z,45.63
2018-06-10T09:47:37.377Z,45.17
2018-06-10T09:49:13.471Z,44.88
2018-06-10T09:50:49.898Z,44.96
2018-06-10T09:52:25.995Z,45.86
2018-06-10T09:54:02.028Z,46.12
2018-06-10T09:55:38.602Z,47.24
2018-06-10T09:57:14.587Z,45.97
2018-06-10T09:58:51.439Z,45.47
2018-06-10T10:00:28.474Z,46.02
2018-06-10T10:02:12.992Z,46.04
2018-06-10T10:03:49.532Z,45.51
2018-06-10T10:05:26.566Z,45.72
2018-06-10T10:07:02.612Z,45.58
2018-06-10T10:08:38.681Z,46.35
2018-06-10T10:10:14.704Z,47.61
2018-06-10T10:11:50.939Z,47.83
2018-06-10T10:13:27.264Z,48.15
2018-06-10T10:15:03.396Z,47.43
2018-06-10T10:16:39.439Z,47.29
2018-06-10T10:18:15.457Z,46.46
2018-06-10T10:19:51.766Z,46.72
2018-06-10T10:21:29.550Z,46.32
2018-06-10T10:23:08.323Z,46.35
2018-06-10T10:24:45.317Z,46.10
2018-06-10T10:29:58.771Z,47.32
2018-06-10T10:31:35.527Z,46.74
2018-06-10T10:33:11.683Z,46.95
2018-06-10T10:35:00.509Z,47.30
2018-06-10T10:36:37.494Z,48.71
2018-06-10T10:38:13.670Z,50.95
2018-06-10T10:39:50.238Z,48.94
2018-06-10T10:41:29.148Z,48.87
2018-06-10T10:43:05.212Z,48.22
2018-06-10T10:44:41.355Z,48.14
2018-06-10T10:46:18.603Z,47.29
2018-06-10T10:47:54.927Z,46.41
2018-06-10T10:49:31.714Z,46.35
2018-06-10T10:51:07.875Z,46.30
2018-06-10T10:52:44.194Z,45.29
2018-06-10T10:54:20.369Z,45.93
2018-06-10T10:55:56.535Z,47.23
2018-06-10T10:57:33.391Z,46.58
2018-06-10T10:59:11.359Z,47.11
2018-06-10T11:00:47.693Z,46.44
2018-06-10T11:02:28.591Z,46.63
2018-06-10T11:04:05.887Z,45.83
2018-06-10T11:05:44.472Z,46.11
2018-06-10T11:07:23.532Z,45.58
2018-06-10T11:09:02.129Z,45.63
2018-06-10T11:10:40.960Z,46.25
2018-06-10T11:12:20.058Z,44.98
2018-06-10T11:13:57.856Z,45.24
2018-06-10T11:15:36.169Z,46.41
2018-06-10T11:17:14.265Z,47.21
2018-06-10T11:18:56.854Z,46.58
2018-06-10T11:20:34.822Z,46.48
2018-06-10T11:22:12.843Z,45.83
2018-06-10T11:23:49.816Z,47.08
2018-06-10T11:25:27.637Z,47.17
2018-06-10T11:27:04.383Z,47.52
2018-06-10T11:28:43.672Z,48.45
2018-06-10T11:30:22.255Z,48.81
2018-06-10T11:31:59.298Z,48.35
2018-06-10T11:33:37.382Z,47.81
2018-06-10T11:35:15.877Z,48.21
2018-06-10T11:36:52.334Z,46.85
2018-06-10T11:38:30.435Z,47.00
2018-06-10T11:40:09.480Z,47.61
2018-06-10T11:41:48.057Z,47.31
2018-06-10T11:43:25.879Z,47.49
2018-06-10T11:45:02.961Z,46.39
2018-06-10T11:46:41.058Z,47.25
2018-06-10T11:48:19.346Z,47.27
2018-06-10T11:49:58.941Z,47.15
2018-06-10T11:51:40.896Z,48.43
2018-06-10T11:53:17.631Z,49.40
2018-06-10T11:54:54.886Z,49.66
2018-06-10T11:56:31.265Z,49.31
2018-06-10T11:58:07.459Z,50.12
2018-06-10T11:59:47.026Z,50.78
2018-06-10T12:01:24.199Z,50.45
2018-06-10T12:03:01.519Z,49.94
2018-06-10T12:04:40.097Z,49.69
2018-06-10T12:06:16.390Z,49.51
2018-06-10T12:07:52.473Z,49.45
2018-06-10T12:09:28.778Z,47.89
2018-06-10T12:11:04.905Z,47.31
2018-06-10T12:12:41.442Z,48.45
2018-06-10T12:14:17.921Z,47.21
2018-06-10T12:15:56.312Z,47.08
2018-06-10T12:17:32.483Z,48.66
2018-06-10T12:19:08.580Z,49.66
2018-06-10T12:20:44.692Z,49.31
2018-06-10T12:22:24.405Z,49.58
2018-06-10T12:24:00.444Z,49.70
2018-06-10T12:25:38.327Z,49.54
2018-06-10T12:27:15.334Z,48.75
2018-06-10T12:28:52.287Z,48.72
2018-06-10T12:30:28.677Z,48.58
2018-06-10T12:32:04.882Z,48.35
2018-06-10T12:33:41.765Z,49.15
2018-06-10T12:35:18.746Z,49.49
2018-06-10T12:36:54.865Z,48.45
2018-06-10T12:38:31.081Z,48.75
2018-06-10T12:40:08.085Z,48.05
2018-06-10T12:41:44.840Z,47.83
2018-06-10T12:43:21.054Z,47.97
2018-06-10T12:44:57.136Z,48.05
2018-06-10T12:46:33.205Z,48.11
2018-06-10T12:48:09.515Z,48.22
2018-06-10T12:49:49.227Z,48.90
2018-06-10T12:51:26.560Z,49.60
2018-06-10T12:53:03.286Z,49.20
2018-06-10T12:54:42.566Z,48.75
2018-06-10T12:56:25.444Z,48.44
2018-06-10T12:58:03.755Z,49.14
2018-06-10T12:59:40.967Z,49.53
2018-06-10T13:01:18.044Z,50.20
2018-06-10T13:02:54.430Z,49.52
2018-06-10T13:04:38.596Z,50.00
2018-06-10T13:06:14.720Z,49.57
2018-06-10T13:07:51.282Z,50.01
2018-06-10T13:09:29.863Z,49.72
2018-06-10T13:11:07.039Z,48.74
2018-06-10T13:12:43.469Z,49.37
2018-06-10T13:14:21.915Z,49.84
2018-06-10T13:15:58.672Z,49.47
2018-06-10T13:17:37.809Z,49.21
2018-06-10T13:19:17.047Z,49.24
2018-06-10T13:20:58.698Z,49.49
2018-06-10T13:22:35.595Z,49.39
2018-06-10T13:24:15.036Z,47.64
2018-06-10T13:25:54.501Z,47.08
2018-06-10T13:27:31.294Z,46.60
2018-06-10T13:29:09.154Z,47.44
2018-06-10T13:30:46.625Z,46.87
2018-06-10T13:32:23.743Z,46.77
2018-06-10T13:34:00.802Z,47.50
2018-06-10T13:35:38.870Z,46.42
2018-06-10T13:37:16.682Z,48.26
2018-06-10T13:38:52.852Z,47.46
2018-06-10T13:40:30.287Z,47.18
2018-06-10T13:42:07.462Z,47.48
2018-06-10T13:43:43.247Z,47.52
2018-06-10T13:45:21.053Z,46.16
2018-06-10T13:47:02.484Z,46.35
2018-06-10T13:48:39.157Z,45.21
2018-06-10T13:50:16.650Z,44.65
2018-06-10T13:51:52.976Z,44.44
2018-06-10T13:53:29.553Z,45.65
2018-06-10T13:55:07.695Z,44.90
2018-06-10T13:56:46.836Z,44.17
2018-06-10T13:58:23.238Z,44.49
2018-06-10T14:00:01.119Z,44.51
2018-06-10T14:01:40.157Z,44.14
2018-06-10T14:03:17.747Z,44.99
2018-06-10T14:04:55.568Z,45.22
2018-06-10T14:06:33.623Z,44.26
2018-06-10T14:08:10.199Z,44.26
2018-06-10T14:09:46.311Z,44.88
2018-06-10T14:11:23.521Z,43.95
2018-06-10T14:13:02.812Z,43.95
2018-06-10T14:14:38.986Z,44.47
2018-06-10T14:16:15.161Z,43.92
2018-06-10T14:17:51.758Z,43.20
2018-06-10T14:19:28.163Z,43.96
2018-06-10T14:21:04.969Z,43.07
2018-06-10T14:22:42.242Z,43.62
2018-06-10T14:24:19.097Z,42.65
2018-06-10T14:25:55.916Z,42.53
2018-06-10T14:27:32.545Z,43.20
2018-06-10T14:29:08.837Z,43.69
2018-06-10T14:30:45.279Z,43.56
2018-06-10T14:32:23.435Z,45.24
2018-06-10T14:34:00.884Z,44.83
2018-06-10T14:35:38.256Z,44.47
2018-06-10T14:37:15.095Z,43.85
2018-06-10T14:38:52.090Z,44.16
2018-06-10T14:40:28.351Z,44.75
2018-06-10T14:42:05.012Z,44.33
2018-06-10T14:43:41.649Z,43.11
2018-06-10T14:45:31.548Z,44.36
2018-06-10T14:47:08.412Z,45.65
2018-06-10T14:48:44.510Z,45.97
2018-06-10T14:50:20.574Z,44.59
2018-06-10T14:51:56.614Z,44.66
2018-06-10T14:53:32.963Z,44.73
2018-06-10T14:55:08.993Z,43.88
2018-06-10T14:56:45.053Z,44.61
2018-06-10T14:58:22.368Z,44.55
2018-06-10T14:59:58.851Z,44.48
2018-06-10T15:01:34.978Z,44.60
2018-06-10T15:03:11.036Z,44.41
2018-06-10T15:04:47.374Z,44.27
2018-06-10T15:06:24.243Z,43.49
2018-06-10T15:08:01.485Z,43.51
2018-06-10T15:09:37.678Z,44.15
2018-06-10T15:11:13.764Z,43.26
2018-06-10T15:12:49.829Z,42.99
2018-06-10T15:14:26.405Z,42.97
2018-06-10T15:16:02.480Z,43.82
2018-06-10T15:17:38.527Z,42.73
2018-06-10T15:19:14.624Z,42.93
2018-06-10T15:20:50.743Z,43.06
2018-06-10T15:22:26.740Z,41.68
2018-06-10T15:24:04.141Z,41.88
2018-06-10T15:25:40.355Z,42.42
2018-06-10T15:27:16.627Z,42.24
2018-06-10T15:28:53.009Z,42.01
2018-06-10T15:30:30.610Z,41.82
2018-06-10T15:32:06.794Z,41.88
2018-06-10T15:33:48.155Z,42.88
2018-06-10T15:35:27.578Z,42.94
2018-06-10T15:37:05.510Z,42.50
2018-06-10T15:38:41.681Z,41.99
2018-06-10T15:40:18.575Z,41.33
2018-06-10T15:41:54.923Z,40.74
2018-06-10T15:43:31.727Z,39.99
2018-06-10T15:45:09.365Z,40.20
2018-06-10T15:46:45.913Z,40.71
2018-06-10T15:48:23.485Z,40.51
2018-06-10T15:50:01.718Z,40.85
2018-06-10T15:51:38.217Z,40.30
2018-06-10T15:53:14.559Z,39.22
2018-06-10T15:54:55.824Z,38.16
2018-06-10T15:56:35.430Z,39.32
2018-06-10T15:58:12.004Z,39.83
2018-06-10T15:59:49.926Z,40.67
2018-06-10T16:01:26.420Z,40.69
2018-06-10T16:03:02.539Z,40.90
2018-06-10T16:04:38.931Z,40.25
2018-06-10T16:06:15.367Z,40.82
2018-06-10T16:07:52.311Z,41.43
2018-06-10T16:09:30.914Z,41.19
2018-06-10T16:11:08.048Z,42.54
2018-06-10T16:12:44.861Z,43.80
2018-06-10T16:14:21.229Z,42.39
2018-06-10T16:15:57.654Z,41.92
2018-06-10T16:17:36.051Z,42.78
2018-06-10T16:19:13.571Z,41.89
2018-06-10T16:20:51.381Z,42.48
2018-06-10T16:22:28.041Z,43.11
2018-06-10T16:24:04.779Z,42.78
2018-06-10T16:25:41.878Z,43.62
2018-06-10T16:27:18.207Z,44.49
2018-06-10T16:28:55.918Z,44.49
2018-06-10T16:30:33.611Z,45.53
2018-06-10T16:32:12.156Z,45.81
2018-06-10T16:33:59.879Z,47.26
2018-06-10T16:35:36.338Z,48.75
2018-06-10T16:37:13.190Z,48.89
2018-06-10T16:38:49.348Z,49.14
2018-06-10T16:40:25.816Z,49.80
2018-06-10T16:42:04.381Z,49.96
2018-06-10T16:43:44.083Z,49.28
2018-06-10T16:45:22.168Z,49.56
2018-06-10T16:47:15.411Z,49.57
2018-06-10T16:48:51.580Z,50.44
2018-06-10T16:50:27.985Z,50.16
2018-06-10T16:52:04.216Z,49.57
2018-06-10T16:53:40.799Z,48.87
2018-06-10T16:55:27.188Z,48.58
2018-06-10T16:57:06.874Z,49.17
2018-06-10T16:58:45.884Z,49.86
2018-06-10T17:00:23.492Z,50.07
2018-06-10T17:01:59.678Z,50.35
2018-06-10T17:03:36.052Z,50.75
2018-06-10T17:05:20.822Z,51.29
2018-06-10T17:06:58.237Z,51.68
2018-06-10T17:08:36.615Z,52.54
2018-06-10T17:10:12.963Z,52.17
2018-06-10T17:11:49.407Z,52.18
2018-06-10T17:13:27.199Z,51.46
2018-06-10T17:15:03.658Z,51.85
2018-06-10T17:16:40.637Z,51.89
2018-06-10T17:18:17.154Z,52.06
2018-06-10T17:19:53.794Z,52.52
2018-06-10T17:21:31.019Z,52.55
2018-06-10T17:23:06.765Z,52.39
2018-06-10T17:24:43.402Z,53.17
2018-06-10T17:26:20.251Z,52.78
2018-06-10T17:27:56.354Z,52.92
2018-06-10T17:29:32.642Z,53.08
2018-06-10T17:31:08.726Z,53.41
2018-06-10T17:32:44.864Z,53.47
2018-06-10T17:34:21.428Z,53.92
2018-06-10T17:35:58.109Z,54.49
2018-06-10T17:37:34.570Z,54.81
2018-06-10T17:39:10.637Z,55.10
2018-06-10T17:40:46.875Z,55.46
2018-06-10T17:42:23.375Z,55.18
2018-06-10T17:44:04.551Z,54.99
2018-06-10T17:45:41.191Z,54.09
2018-06-10T17:47:17.721Z,54.70
2018-06-10T17:48:54.153Z,55.56
2018-06-10T17:50:30.283Z,55.55
2018-06-10T17:52:07.162Z,55.29
2018-06-10T17:53:43.899Z,55.67
2018-06-10T17:55:20.137Z,55.16
2018-06-10T17:56:56.425Z,55.70
2018-06-10T17:58:32.467Z,55.82
2018-06-10T18:00:13.321Z,55.71
2018-06-10T18:01:49.371Z,56.74
2018-06-10T18:03:25.663Z,56.56
2018-06-10T18:05:01.691Z,56.09
2018-06-10T18:06:37.758Z,56.42
2018-06-10T18:08:13.781Z,56.33
2018-06-10T18:09:50.556Z,56.01
2018-06-10T18:11:27.642Z,56.01
2018-06-10T18:13:08.216Z,55.31
2018-06-10T18:14:44.483Z,54.77
2018-06-10T18:16:20.663Z,53.85
2018-06-10T18:17:57.203Z,53.55
2018-06-10T18:19:33.470Z,53.29
2018-06-10T18:21:09.534Z,53.89
2018-06-10T18:22:45.611Z,54.33
2018-06-10T18:24:21.888Z,54.80
2018-06-10T18:25:58.006Z,55.09
2018-06-10T18:27:36.458Z,54.91
2018-06-10T18:29:13.817Z,56.12
2018-06-10T18:30:49.834Z,56.97
2018-06-10T18:32:28.426Z,56.48
2018-06-10T18:34:04.518Z,57.20
2018-06-10T18:35:40.529Z,57.80
2018-06-10T18:37:16.659Z,57.14
2018-06-10T18:38:52.679Z,57.44
2018-06-10T18:40:28.746Z,57.63
2018-06-10T18:42:05.000Z,57.91
2018-06-10T18:43:41.032Z,58.26
2018-06-10T18:45:16.789Z,58.21
2018-06-10T18:46:53.542Z,58.28
2018-06-10T18:48:29.634Z,58.90
2018-06-10T18:50:09.681Z,59.08
2018-06-10T18:53:41.428Z,59.48
2018-06-10T18:55:20.870Z,59.27
2018-06-10T18:56:57.168Z,60.21
2018-06-10T18:58:33.487Z,60.77
2018-06-10T19:00:09.757Z,60.87
2018-06-10T19:01:46.042Z,60.83
2018-06-10T19:03:22.949Z,60.40
2018-06-10T19:04:58.941Z,60.65
2018-06-10T19:06:34.964Z,58.83
2018-06-10T19:08:11.013Z,60.10
2018-06-10T19:09:47.069Z,59.93
2018-06-10T19:11:23.134Z,59.41
2018-06-10T19:12:59.216Z,58.00
2018-06-10T19:14:35.279Z,57.74
2018-06-10T19:16:11.594Z,57.23
2018-06-10T19:17:47.634Z,56.64
2018-06-10T19:19:23.647Z,56.77
2018-06-10T19:20:59.701Z,56.37
2018-06-10T19:22:35.723Z,56.37
2018-06-10T19:24:11.802Z,57.55
2018-06-10T19:28:07.029Z,57.68
2018-06-10T19:29:42.831Z,56.51
2018-06-10T19:31:18.734Z,57.19
2018-06-10T19:32:54.855Z,57.34
2018-06-10T19:34:30.857Z,57.24
2018-06-10T19:36:07.072Z,57.00
2018-06-10T19:37:43.071Z,57.15
2018-06-10T19:39:20.116Z,57.02
2018-06-10T19:40:55.968Z,57.06
2018-06-10T19:42:32.176Z,56.67
2018-06-10T19:44:08.243Z,57.47
2018-06-10T19:45:44.310Z,57.07
2018-06-10T19:47:20.324Z,56.93
2018-06-10T19:48:56.288Z,56.63
2018-06-10T19:50:32.305Z,57.60
2018-06-10T19:52:08.358Z,56.67
2018-06-10T19:53:44.533Z,57.13
2018-06-10T19:55:20.550Z,56.87
2018-06-10T19:56:56.557Z,56.93
2018-06-10T19:58:32.588Z,57.06
2018-06-10T20:00:08.619Z,58.02
2018-06-10T20:01:44.606Z,58.65
2018-06-10T20:03:25.088Z,57.74
2018-06-10T20:05:01.711Z,57.76
2018-06-10T20:06:37.701Z,58.24
2018-06-10T20:08:13.848Z,58.63
2018-06-10T20:09:50.207Z,58.78
2018-06-10T20:11:25.935Z,58.10
2018-06-10T20:13:01.771Z,58.55
2018-06-10T20:14:38.288Z,58.63
2018-06-10T20:16:14.281Z,59.33
2018-06-10T20:17:50.291Z,59.60
2018-06-10T20:19:26.275Z,59.43
2018-06-10T20:21:02.257Z,60.25
2018-06-10T20:22:38.282Z,60.14
2018-06-10T20:24:14.414Z,60.70
2018-06-10T20:25:50.422Z,61.18
2018-06-10T20:27:26.406Z,60.24
2018-06-10T20:29:02.438Z,61.53
2018-06-10T20:30:38.625Z,61.95
2018-06-10T20:32:14.562Z,61.58
2018-06-10T20:33:50.777Z,61.91
2018-06-10T20:35:26.841Z,62.37
2018-06-10T20:37:05.751Z,62.32
2018-06-10T20:38:42.356Z,62.39
2018-06-10T20:40:18.356Z,63.03
2018-06-10T20:41:54.405Z,63.15
2018-06-10T20:43:30.430Z,62.33
2018-06-10T20:45:06.590Z,62.60
2018-06-10T20:46:42.699Z,62.57
2018-06-10T20:48:18.767Z,62.64
2018-06-10T20:49:54.703Z,63.65
2018-06-10T20:51:30.840Z,63.66
2018-06-10T20:53:07.024Z,63.03
2018-06-10T20:54:43.100Z,62.90
2018-06-10T20:56:19.170Z,63.25
2018-06-10T20:57:55.137Z,63.89
2018-06-10T20:59:31.135Z,64.17
2018-06-10T21:01:07.295Z,64.12